createdAt,value
2023-04-24T00:00:46.440Z,100692.13
2023-04-24T00:03:16.803Z,100700.97
2023-04-24T00:05:47.026Z,100688.88
2023-04-24T00:08:19.201Z,100693.72
2023-04-24T00:10:49.663Z,100691.25
2023-04-24T00:13:19.615Z,100684.81
2023-04-24T00:15:50.001Z,100684.00
2023-04-24T00:18:20.496Z,100681.19
2023-04-24T00:20:50.838Z,100678.72
2023-04-24T00:23:22.690Z,100679.56
2023-04-24T00:25:52.849Z,100684.75
2023-04-24T00:28:23.115Z,100679.91
2023-04-24T00:30:53.192Z,100678.28
2023-04-24T00:33:23.917Z,100678.69
2023-04-24T00:35:53.518Z,100678.69
2023-04-24T00:38:25.266Z,100696.38
2023-04-24T00:40:55.410Z,100695.16
2023-04-24T00:43:26.107Z,100694.34
2023-04-24T00:45:56.419Z,100692.72
2023-04-24T00:48:28.721Z,100695.53
2023-04-24T00:51:00.142Z,100695.94
2023-04-24T00:53:31.829Z,100703.56
2023-04-24T00:56:03.089Z,100694.28
2023-04-24T00:58:34.025Z,100691.03
2023-04-24T01:01:04.044Z,100689.00
2023-04-24T01:03:34.871Z,100693.03
2023-04-24T01:06:04.796Z,100703.50
2023-04-24T01:08:39.301Z,100703.06
2023-04-24T01:11:09.217Z,100694.97
2023-04-24T01:13:39.538Z,100704.63
2023-04-24T01:16:09.336Z,100705.00
2023-04-24T01:18:39.995Z,100711.44
2023-04-24T01:21:12.356Z,100713.81
2023-04-24T01:23:44.419Z,100705.38
2023-04-24T01:26:15.643Z,100709.72
2023-04-24T01:28:46.432Z,100707.72
2023-04-24T01:31:17.102Z,100709.28
2023-04-24T01:33:47.385Z,100711.31
2023-04-24T01:36:19.736Z,100709.66
2023-04-24T01:38:51.388Z,100706.03
2023-04-24T01:41:22.042Z,100718.06
2023-04-24T01:43:53.067Z,100716.44
2023-04-24T01:46:23.684Z,100717.19
2023-04-24T01:48:55.126Z,100719.53
2023-04-24T01:51:25.364Z,100723.13
2023-04-24T01:53:56.843Z,100717.06
2023-04-24T01:56:27.885Z,100717.78
2023-04-24T01:58:59.471Z,100715.34
2023-04-24T02:01:29.241Z,100716.91
2023-04-24T02:03:59.498Z,100712.84
2023-04-24T02:06:29.525Z,100722.47
2023-04-24T02:09:01.620Z,100730.50
2023-04-24T02:11:31.708Z,100728.88
2023-04-24T02:14:01.666Z,100714.34
2023-04-24T02:16:34.363Z,100732.88
2023-04-24T02:19:04.605Z,100724.78
2023-04-24T02:21:34.631Z,100711.06
2023-04-24T02:24:06.970Z,100724.34
2023-04-24T02:26:37.209Z,100727.53
2023-04-24T02:29:06.876Z,100727.06
2023-04-24T02:31:37.248Z,100723.84
2023-04-24T02:34:07.321Z,100729.03
2023-04-24T02:36:37.533Z,100732.22
2023-04-24T02:39:09.665Z,100739.03
2023-04-24T02:41:39.785Z,100743.03
2023-04-24T02:44:09.983Z,100732.13
2023-04-24T02:46:39.851Z,100734.16
2023-04-24T02:49:10.216Z,100730.09
2023-04-24T02:51:42.431Z,100736.06
2023-04-24T02:54:14.413Z,100733.19
2023-04-24T02:56:44.716Z,100729.91
2023-04-24T02:59:14.644Z,100733.13
2023-04-24T03:01:44.854Z,100744.75
2023-04-24T03:04:15.098Z,100740.31
2023-04-24T03:06:44.874Z,100741.47
2023-04-24T03:09:16.493Z,100735.81
2023-04-24T03:11:46.695Z,100742.63
2023-04-24T03:14:16.796Z,100746.63
2023-04-24T03:16:47.256Z,100751.47
2023-04-24T03:19:16.993Z,100742.19
2023-04-24T03:21:47.779Z,100749.84
2023-04-24T03:24:20.036Z,100753.84
2023-04-24T03:26:50.076Z,100756.66
2023-04-24T03:29:20.112Z,100760.25
2023-04-24T03:31:50.422Z,100753.00
2023-04-24T03:34:20.754Z,100756.66
2023-04-24T03:36:50.970Z,100757.84
2023-04-24T03:39:22.707Z,100759.84
2023-04-24T03:41:52.975Z,100756.19
2023-04-24T03:44:23.149Z,100763.84
2023-04-24T03:46:53.327Z,100768.28
2023-04-24T03:49:23.338Z,100775.53
2023-04-24T03:51:53.926Z,100774.72
2023-04-24T03:54:25.909Z,100774.72
2023-04-24T03:56:56.279Z,100780.34
2023-04-24T03:59:25.838Z,100783.97
2023-04-24T04:01:56.300Z,100788.41
2023-04-24T04:04:26.622Z,100796.88
2023-04-24T04:06:57.122Z,100790.44
2023-04-24T04:09:28.109Z,100795.22
2023-04-24T04:11:58.167Z,100795.22
2023-04-24T04:14:28.611Z,100794.88
2023-04-24T04:16:58.941Z,100790.44
2023-04-24T04:19:29.200Z,100807.31
2023-04-24T04:21:59.323Z,100799.69
2023-04-24T04:24:31.536Z,100796.50
2023-04-24T04:27:01.928Z,100799.69
2023-04-24T04:29:32.751Z,100797.31
2023-04-24T04:32:04.087Z,100804.59
2023-04-24T04:34:34.726Z,100798.16
2023-04-24T04:37:05.113Z,100796.13
2023-04-24T04:39:36.784Z,100798.94
2023-04-24T04:42:08.167Z,100798.59
2023-04-24T04:44:39.917Z,100803.50
2023-04-24T04:47:10.442Z,100812.75
2023-04-24T04:49:41.475Z,100810.38
2023-04-24T04:52:11.362Z,100808.03
2023-04-24T04:54:43.397Z,100810.13
2023-04-24T04:57:13.473Z,100809.72
2023-04-24T04:59:44.350Z,100809.81
2023-04-24T05:02:14.898Z,100809.88
2023-04-24T05:04:44.545Z,100817.59
2023-04-24T05:07:14.388Z,100816.03
2023-04-24T05:09:46.535Z,100809.28
2023-04-24T05:12:16.562Z,100812.63
2023-04-24T05:14:46.822Z,100813.97
2023-04-24T05:17:17.013Z,100812.47
2023-04-24T05:19:47.861Z,100812.97
2023-04-24T05:22:19.067Z,100817.13
2023-04-24T05:24:51.198Z,100822.47
2023-04-24T05:27:21.245Z,100816.47
2023-04-24T05:29:51.500Z,100814.56
2023-04-24T05:32:21.415Z,100817.03
2023-04-24T05:34:51.705Z,100820.75
2023-04-24T05:37:21.447Z,100826.91
2023-04-24T05:39:53.102Z,100832.22
2023-04-24T05:42:23.209Z,100833.91
2023-04-24T05:44:57.397Z,100828.78
2023-04-24T05:47:28.385Z,100832.94
2023-04-24T05:49:58.859Z,100834.25
2023-04-24T05:52:28.744Z,100838.00
2023-04-24T05:55:00.257Z,100837.69
2023-04-24T05:57:30.387Z,100843.06
2023-04-24T06:00:00.277Z,100844.34
2023-04-24T06:02:34.021Z,100855.78
2023-04-24T06:05:04.687Z,100858.28
2023-04-24T06:07:35.943Z,100854.75
2023-04-24T06:10:09.423Z,100859.72
2023-04-24T06:12:39.342Z,100858.56
2023-04-24T06:15:11.269Z,100861.91
2023-04-24T06:17:41.557Z,100863.56
2023-04-24T06:20:12.797Z,100863.25
2023-04-24T06:22:43.296Z,100861.28
2023-04-24T06:25:15.921Z,100861.81
2023-04-24T06:27:45.991Z,100871.13
2023-04-24T06:30:15.969Z,100861.53
2023-04-24T06:32:46.557Z,100870.47
2023-04-24T06:35:16.741Z,100871.81
2023-04-24T06:37:47.360Z,100871.44
2023-04-24T06:40:19.986Z,100873.13
2023-04-24T06:42:49.626Z,100878.06
2023-04-24T06:45:20.145Z,100881.38
2023-04-24T06:47:50.581Z,100889.53
2023-04-24T06:50:21.017Z,100889.19
2023-04-24T06:52:50.769Z,100892.50
2023-04-24T06:55:22.524Z,100899.47
2023-04-24T06:57:52.836Z,100903.16
2023-04-24T07:00:25.593Z,100909.69
2023-04-24T07:02:55.640Z,100910.53
2023-04-24T07:05:26.174Z,100908.19
2023-04-24T07:07:56.444Z,100917.53
2023-04-24T07:10:30.105Z,100903.44
2023-04-24T07:12:59.971Z,100915.56
2023-04-24T07:15:30.084Z,100915.66
2023-04-24T07:18:01.239Z,100915.69
2023-04-24T07:20:31.835Z,100914.91
2023-04-24T07:23:02.040Z,100928.72
2023-04-24T07:25:34.350Z,100927.53
2023-04-24T07:28:05.928Z,100924.75
2023-04-24T07:30:36.035Z,100938.16
2023-04-24T07:33:05.858Z,100928.09
2023-04-24T07:35:37.609Z,100927.31
2023-04-24T07:38:07.820Z,100922.09
2023-04-24T07:40:40.002Z,100926.94
2023-04-24T07:43:09.863Z,100922.56
2023-04-24T07:45:42.752Z,100933.09
2023-04-24T07:48:13.322Z,100925.03
2023-04-24T07:50:43.461Z,100925.47
2023-04-24T07:53:13.740Z,100920.22
2023-04-24T07:55:45.778Z,100923.09
2023-04-24T07:58:16.622Z,100917.84
2023-04-24T08:00:46.427Z,100926.34
2023-04-24T08:03:19.886Z,100934.88
2023-04-24T08:05:52.832Z,100929.63
2023-04-24T08:08:25.645Z,100930.88
2023-04-24T08:10:58.146Z,100938.56
2023-04-24T08:13:28.497Z,100939.00
2023-04-24T08:15:59.917Z,100935.78
2023-04-24T08:18:30.219Z,100939.84
2023-04-24T08:21:02.745Z,100933.78
2023-04-24T08:23:32.991Z,100928.16
2023-04-24T08:26:05.062Z,100939.91
2023-04-24T08:28:35.121Z,100937.50
2023-04-24T08:31:05.267Z,100937.13
2023-04-24T08:33:36.314Z,100939.56
2023-04-24T08:36:07.665Z,100947.69
2023-04-24T08:38:38.367Z,100942.84
2023-04-24T08:41:12.389Z,100936.41
2023-04-24T08:43:43.959Z,100941.66
2023-04-24T08:46:16.865Z,100938.06
2023-04-24T08:48:47.649Z,100930.00
2023-04-24T08:51:18.463Z,100932.03
2023-04-24T08:53:49.884Z,100930.88
2023-04-24T08:56:23.123Z,100939.75
2023-04-24T08:58:54.909Z,100930.50
2023-04-24T09:01:28.424Z,100925.25
2023-04-24T09:03:59.759Z,100921.22
2023-04-24T09:06:30.401Z,100920.81
2023-04-24T09:09:03.529Z,100916.38
2023-04-24T09:11:35.972Z,100921.66
2023-04-24T09:14:06.961Z,100927.75
2023-04-24T09:16:37.432Z,100922.88
2023-04-24T09:19:07.607Z,100919.66
2023-04-24T09:21:39.312Z,100924.13
2023-04-24T09:24:18.953Z,100917.25
2023-04-24T09:26:50.480Z,100922.13
2023-04-24T09:29:21.889Z,100924.53
2023-04-24T09:31:52.172Z,100918.06
2023-04-24T09:34:27.143Z,100924.13
2023-04-24T09:36:58.512Z,100921.31
2023-04-24T09:39:28.469Z,100922.13
2023-04-24T09:42:02.061Z,100918.09
2023-04-24T09:44:33.552Z,100915.25
2023-04-24T09:47:04.161Z,100921.72
2023-04-24T09:49:34.803Z,100919.72
2023-04-24T09:52:09.206Z,100921.34
2023-04-24T09:54:39.959Z,100910.03
2023-04-24T09:57:11.810Z,100918.13
2023-04-24T09:59:49.480Z,100912.44
2023-04-24T10:02:23.635Z,100915.28
2023-04-24T10:05:01.327Z,100907.56
2023-04-24T10:07:31.343Z,100908.78
2023-04-24T10:10:02.897Z,100915.72
2023-04-24T10:12:34.913Z,100908.44
2023-04-24T10:15:07.205Z,100903.56
2023-04-24T10:17:38.578Z,100908.84
2023-04-24T10:20:10.989Z,100908.44
2023-04-24T10:22:41.756Z,100903.59
2023-04-24T10:25:12.862Z,100905.22
2023-04-24T10:27:45.053Z,100904.84
2023-04-24T10:30:17.663Z,100903.66
2023-04-24T10:32:48.064Z,100908.13
2023-04-24T10:35:23.747Z,100904.88
2023-04-24T10:38:00.471Z,100902.84
2023-04-24T10:40:35.851Z,100907.31
2023-04-24T10:43:11.073Z,100905.69
2023-04-24T10:45:42.128Z,100897.19
2023-04-24T10:48:15.300Z,100897.59
2023-04-24T10:50:51.219Z,100893.94
2023-04-24T10:53:24.719Z,100888.66
2023-04-24T10:56:01.116Z,100889.81
2023-04-24T10:58:46.322Z,100878.09
2023-04-24T11:01:29.610Z,100887.41
2023-04-24T11:04:01.992Z,100882.94
2023-04-24T11:06:37.246Z,100884.97
2023-04-24T11:09:09.835Z,100884.16
2023-04-24T11:11:43.076Z,100887.81
2023-04-24T11:14:18.074Z,100886.59
2023-04-24T11:16:55.542Z,100884.16
2023-04-24T11:19:27.925Z,100880.50
2023-04-24T11:22:03.372Z,100876.47
2023-04-24T11:24:40.547Z,100873.63
2023-04-24T11:27:18.602Z,100879.31
2023-04-24T11:29:53.106Z,100877.28
2023-04-24T11:32:32.060Z,100878.09
2023-04-24T11:35:04.860Z,100871.19
2023-04-24T11:37:40.032Z,100872.03
2023-04-24T11:40:13.650Z,100874.84
2023-04-24T11:42:45.537Z,100871.19
2023-04-24T11:45:21.850Z,100865.53
2023-04-24T11:47:52.176Z,100864.72
2023-04-24T11:50:29.146Z,100857.03
2023-04-24T11:53:01.702Z,100868.78
2023-04-24T11:55:32.652Z,100871.59
2023-04-24T11:58:03.059Z,100860.25
2023-04-24T12:00:36.930Z,100862.31
2023-04-24T12:03:11.705Z,100856.63
2023-04-24T12:05:42.752Z,100857.00
2023-04-24T12:08:12.984Z,100849.72
2023-04-24T12:10:43.403Z,100852.53
2023-04-24T12:13:14.406Z,100839.59
2023-04-24T12:15:46.754Z,100849.31
2023-04-24T12:18:23.528Z,100848.50
2023-04-24T12:20:53.894Z,100846.06
2023-04-24T12:23:38.677Z,100840.78
2023-04-24T12:26:09.312Z,100840.38
2023-04-24T12:28:40.273Z,100839.53
2023-04-24T12:31:12.913Z,100835.09
2023-04-24T12:33:42.707Z,100839.94
2023-04-24T12:36:17.405Z,100851.69
2023-04-24T12:38:47.965Z,100844.41
2023-04-24T12:41:19.858Z,100845.59
2023-04-24T12:43:57.472Z,100834.66
2023-04-24T12:46:29.353Z,100837.88
2023-04-24T12:48:59.978Z,100834.63
2023-04-24T12:51:29.851Z,100845.16
2023-04-24T12:54:00.877Z,100837.03
2023-04-24T12:56:32.159Z,100835.00
2023-04-24T12:59:02.344Z,100835.00
2023-04-24T13:01:34.184Z,100835.38
2023-04-24T13:04:04.544Z,100837.44
2023-04-24T13:06:34.655Z,100836.19
2023-04-24T13:09:05.089Z,100836.56
2023-04-24T13:11:34.911Z,100828.47
2023-04-24T13:14:04.898Z,100835.34
2023-04-24T13:16:36.521Z,100830.09
2023-04-24T13:19:07.475Z,100829.66
2023-04-24T13:21:37.096Z,100835.75
2023-04-24T13:24:09.110Z,100829.25
2023-04-24T13:26:39.192Z,100833.28
2023-04-24T13:29:09.381Z,100831.66
2023-04-24T13:31:41.730Z,100834.47
2023-04-24T13:34:12.168Z,100830.03
2023-04-24T13:36:42.308Z,100835.69
2023-04-24T13:39:12.662Z,100830.44
2023-04-24T13:41:43.436Z,100838.13
2023-04-24T13:44:13.347Z,100832.03
2023-04-24T13:46:46.148Z,100835.28
2023-04-24T13:49:17.692Z,100841.72
2023-04-24T13:51:48.737Z,100836.78
2023-04-24T13:54:19.048Z,100843.66
2023-04-24T13:56:48.931Z,100828.28
2023-04-24T13:59:19.117Z,100840.00
2023-04-24T14:01:51.030Z,100840.00
2023-04-24T14:04:21.288Z,100838.75
2023-04-24T14:06:51.947Z,100839.16
2023-04-24T14:09:22.173Z,100837.94
2023-04-24T14:11:52.048Z,100844.78
2023-04-24T14:14:22.673Z,100843.16
2023-04-24T14:16:54.952Z,100846.41
2023-04-24T14:19:25.244Z,100847.16
2023-04-24T14:21:57.031Z,100847.56
2023-04-24T14:24:27.167Z,100854.44
2023-04-24T14:26:57.823Z,100854.81
2023-04-24T14:29:27.388Z,100860.88
2023-04-24T14:31:59.367Z,100861.28
2023-04-24T14:34:29.703Z,100858.81
2023-04-24T14:37:00.374Z,100870.13
2023-04-24T14:39:31.917Z,100869.75
2023-04-24T14:42:02.431Z,100864.00
2023-04-24T14:44:32.430Z,100856.72
2023-04-24T14:47:05.111Z,100854.69
2023-04-24T14:49:35.564Z,100851.44
2023-04-24T14:52:05.495Z,100859.13
2023-04-24T14:54:35.306Z,100855.03
2023-04-24T14:57:05.600Z,100859.06
2023-04-24T14:59:36.041Z,100852.59
2023-04-24T15:02:15.400Z,100855.84
2023-04-24T15:04:47.149Z,100848.56
2023-04-24T15:07:17.701Z,100847.72
2023-04-24T15:09:48.451Z,100847.72
2023-04-24T15:12:18.865Z,100845.28
2023-04-24T15:14:48.971Z,100842.03
2023-04-24T15:17:20.666Z,100839.19
2023-04-24T15:19:50.839Z,100848.09
2023-04-24T15:22:21.446Z,100846.47
2023-04-24T15:24:51.471Z,100843.19
2023-04-24T15:27:21.856Z,100845.22
2023-04-24T15:29:52.159Z,100854.09
2023-04-24T15:32:24.403Z,100844.81
2023-04-24T15:35:07.043Z,100850.00
2023-04-24T15:37:38.783Z,100848.75
2023-04-24T15:40:11.808Z,100850.75
2023-04-24T15:42:41.584Z,100848.34
2023-04-24T15:45:13.089Z,100846.69
2023-04-24T15:47:44.968Z,100847.09
2023-04-24T15:50:17.436Z,100845.03
2023-04-24T15:52:48.929Z,100848.28
2023-04-24T15:55:19.466Z,100845.00
2023-04-24T15:57:50.105Z,100845.41
2023-04-24T16:00:21.789Z,100842.94
2023-04-24T16:02:54.100Z,100846.16
2023-04-24T16:05:25.037Z,100854.22
2023-04-24T16:07:55.553Z,100852.59
2023-04-24T16:10:25.507Z,100860.66
2023-04-24T16:12:56.240Z,100855.38
2023-04-24T16:15:26.366Z,100856.97
2023-04-24T16:17:58.309Z,100856.16
2023-04-24T16:20:28.974Z,100849.25
2023-04-24T16:22:59.514Z,100848.03
2023-04-24T16:25:29.842Z,100853.25
2023-04-24T16:28:00.336Z,100850.00
2023-04-24T16:30:30.566Z,100851.59
2023-04-24T16:33:07.764Z,100849.16
2023-04-24T16:35:38.232Z,100846.69
2023-04-24T16:38:08.185Z,100848.28
2023-04-24T16:40:38.651Z,100844.22
2023-04-24T16:43:09.076Z,100851.06
2023-04-24T16:45:39.400Z,100852.28
2023-04-24T16:48:11.833Z,100847.00
2023-04-24T16:50:42.017Z,100851.41
2023-04-24T16:53:12.667Z,100853.44
2023-04-24T16:55:42.859Z,100853.00
2023-04-24T16:58:12.833Z,100857.00
2023-04-24T17:00:43.243Z,100858.56
2023-04-24T17:03:16.368Z,100850.50
2023-04-24T17:05:47.229Z,100859.34
2023-04-24T17:08:17.660Z,100860.13
2023-04-24T17:10:47.980Z,100866.13
2023-04-24T17:13:18.310Z,100866.53
2023-04-24T17:15:48.587Z,100877.84
2023-04-24T17:18:20.929Z,100875.78
2023-04-24T17:20:51.469Z,100874.53
2023-04-24T17:23:22.836Z,100873.72
2023-04-24T17:25:53.229Z,100874.50
2023-04-24T17:28:30.063Z,100863.56
2023-04-24T17:31:03.020Z,100876.06
2023-04-24T17:33:35.377Z,100887.75
2023-04-24T17:36:07.206Z,100878.81
2023-04-24T17:38:37.638Z,100890.53
2023-04-24T17:41:08.263Z,100893.75
2023-04-24T17:43:38.397Z,100897.75
2023-04-24T17:46:08.834Z,100905.00
2023-04-24T17:48:42.503Z,100899.72
2023-04-24T17:51:12.833Z,100906.53
2023-04-24T17:53:43.176Z,100919.03
2023-04-24T17:56:13.671Z,100916.59
2023-04-24T17:58:44.095Z,100924.63
2023-04-24T18:01:14.139Z,100922.22
2023-04-24T18:03:47.239Z,100917.75
2023-04-24T18:06:19.265Z,100926.63
2023-04-24T18:08:50.069Z,100920.53
2023-04-24T18:11:20.757Z,100929.38
2023-04-24T18:13:51.886Z,100936.22
2023-04-24T18:16:23.175Z,100933.75
2023-04-24T18:18:56.458Z,100936.19
2023-04-24T18:21:27.153Z,100935.72
2023-04-24T18:24:00.693Z,100940.56
2023-04-24T18:26:31.693Z,100945.41
2023-04-24T18:29:01.412Z,100946.97
2023-04-24T18:31:33.505Z,100945.34
2023-04-24T18:34:05.479Z,100953.00
2023-04-24T18:36:35.746Z,100952.50
2023-04-24T18:39:06.203Z,100961.38
2023-04-24T18:41:37.069Z,100961.75
2023-04-24T18:44:07.201Z,100959.28
2023-04-24T18:46:41.795Z,100963.34
2023-04-24T18:49:14.193Z,100967.34
2023-04-24T18:51:53.907Z,100969.72
2023-04-24T18:54:24.757Z,100968.09
2023-04-24T18:56:56.245Z,100973.31
2023-04-24T18:59:27.836Z,100967.66
2023-04-24T19:01:58.387Z,100971.66
2023-04-24T19:04:31.788Z,100971.22
2023-04-24T19:07:01.670Z,100966.78
2023-04-24T19:09:32.163Z,100970.81
2023-04-24T19:12:03.324Z,100963.53
2023-04-24T19:14:33.547Z,100963.88
2023-04-24T19:17:10.143Z,100967.91
2023-04-24T19:19:42.581Z,100960.66
2023-04-24T19:22:13.093Z,100960.19
2023-04-24T19:24:43.529Z,100969.88
2023-04-24T19:27:14.281Z,100974.66
2023-04-24T19:29:44.343Z,100974.25
2023-04-24T19:32:14.937Z,100986.34
2023-04-24T19:34:47.515Z,100983.09
2023-04-24T19:37:19.704Z,100991.94
2023-04-24T19:39:50.152Z,100990.31
2023-04-24T19:42:28.505Z,100993.13
2023-04-24T19:45:07.182Z,100985.03
2023-04-24T19:47:37.395Z,100988.22
2023-04-24T19:50:10.962Z,100991.03
2023-04-24T19:52:41.820Z,100982.97
2023-04-24T19:55:12.874Z,100989.78
2023-04-24T19:57:42.974Z,100994.63
2023-04-24T20:00:15.318Z,100990.19
2023-04-24T20:02:45.688Z,100982.91
2023-04-24T20:05:17.916Z,100984.09
2023-04-24T20:07:48.405Z,100978.84
2023-04-24T20:10:19.050Z,100980.81
2023-04-24T20:12:48.710Z,100986.00
2023-04-24T20:15:18.637Z,100982.38
2023-04-24T20:17:49.180Z,100983.97
2023-04-24T20:20:21.172Z,100983.50
2023-04-24T20:22:51.514Z,100983.91
2023-04-24T20:25:21.952Z,100978.59
2023-04-24T20:27:52.474Z,100979.00
2023-04-24T20:30:22.967Z,100978.56
2023-04-24T20:32:53.398Z,100977.75
2023-04-24T20:35:25.500Z,100976.91
2023-04-24T20:37:55.459Z,100976.47
2023-04-24T20:40:26.755Z,100982.09
2023-04-24T20:42:58.048Z,100984.50
2023-04-24T20:45:28.722Z,100983.66
2023-04-24T20:47:58.656Z,100984.84
2023-04-24T20:50:31.003Z,100988.84
2023-04-24T20:53:01.324Z,100978.31
2023-04-24T20:55:31.563Z,100975.06
2023-04-24T20:58:02.557Z,100979.06
2023-04-24T21:00:32.818Z,100970.16
2023-04-24T21:03:03.394Z,100965.25
2023-04-24T21:05:35.391Z,100967.25
2023-04-24T21:08:05.717Z,100977.75
2023-04-24T21:10:35.381Z,100974.91
2023-04-24T21:13:05.025Z,100975.28
2023-04-24T21:15:36.278Z,100969.63
2023-04-24T21:18:07.947Z,100977.28
2023-04-24T21:20:40.377Z,100976.47
2023-04-24T21:23:10.789Z,100976.84
2023-04-24T21:25:41.685Z,100978.84
2023-04-24T21:28:11.844Z,100980.03
2023-04-24T21:30:42.341Z,100977.97
2023-04-24T21:33:13.032Z,100977.50
2023-04-24T21:35:44.584Z,100974.69
2023-04-24T21:38:15.005Z,100974.25
2023-04-24T21:40:44.831Z,100966.16
2023-04-24T21:43:14.859Z,100962.53
2023-04-24T21:45:45.495Z,100962.88
2023-04-24T21:48:15.983Z,100960.06
2023-04-24T21:50:48.363Z,100964.06
2023-04-24T21:53:18.615Z,100960.47
2023-04-24T21:55:49.283Z,100954.81
2023-04-24T21:58:19.713Z,100964.47
2023-04-24T22:00:49.566Z,100963.63
2023-04-24T22:03:19.734Z,100967.66
2023-04-24T22:05:52.005Z,100972.84
2023-04-24T22:08:22.355Z,100974.84
2023-04-24T22:10:55.168Z,100964.31
2023-04-24T22:13:25.598Z,100955.41
2023-04-24T22:15:55.457Z,100954.16
2023-04-24T22:18:33.344Z,100949.25
2023-04-24T22:21:12.618Z,100946.38
2023-04-24T22:23:43.007Z,100944.28
2023-04-24T22:26:13.549Z,100945.00
2023-04-24T22:28:43.674Z,100930.03
2023-04-24T22:31:14.213Z,100926.75
2023-04-24T22:33:44.621Z,100927.13
2023-04-24T22:36:17.317Z,100919.84
2023-04-24T22:38:47.500Z,100926.66
2023-04-24T22:41:17.890Z,100920.19
2023-04-24T22:43:48.783Z,100917.75
2023-04-24T22:46:19.446Z,100918.56
2023-04-24T22:48:49.579Z,100917.75
2023-04-24T22:51:21.773Z,100908.84
2023-04-24T22:53:52.091Z,100901.59
2023-04-24T22:56:22.175Z,100899.94
2023-04-24T22:58:52.551Z,100902.34
2023-04-24T23:01:23.269Z,100896.72
2023-04-24T23:03:54.049Z,100902.69
2023-04-24T23:06:27.166Z,100893.00
2023-04-24T23:08:57.484Z,100894.91
2023-04-24T23:11:27.870Z,100883.56
2023-04-24T23:13:58.304Z,100888.31
2023-04-24T23:16:28.616Z,100889.84
2023-04-24T23:18:59.599Z,100891.06
2023-04-24T23:21:31.548Z,100888.97
2023-04-24T23:24:02.052Z,100889.78
2023-04-24T23:26:32.314Z,100890.16
2023-04-24T23:29:02.506Z,100889.38
2023-04-24T23:31:32.950Z,100889.38
2023-04-24T23:34:03.174Z,100882.91
2023-04-24T23:36:36.046Z,100882.09
2023-04-24T23:39:07.296Z,100893.72
2023-04-24T23:41:37.967Z,100891.28
2023-04-24T23:44:08.482Z,100896.06
2023-04-24T23:46:38.882Z,100893.25
2023-04-24T23:49:09.603Z,100894.47
2023-04-24T23:51:41.964Z,100892.00
2023-04-24T23:54:13.294Z,100895.19
2023-04-24T23:56:43.037Z,100897.94
2023-04-24T23:59:12.660Z,100893.03
